Lanark, Illinois
Current Conditions -  °F | °C
As of 11:35 AM on Thursday 23 Oct 2014 (Local Time) from KSFY Reporting Station
Overcast Overcast  
Wind Chill: 54°   Ceiling: 4200
Heat Index: 54°   Visibility: 10mi
Dew Point: 42°   Wind: 9mph
Humidity: 62%   Direction: 170°S
Pressure: 30.12"   Gusts: NA
Location:  42.1°N, 89.83°W
Report Text: KSFY 231635Z AUTO 17008KT 10SM BKN042 BKN060 OVC070 12/05 A3012 RMK AO2 T01240054
Loading
Personal Weather Stations






























Interactive Weather Map
Tropical Storm Tracking
New forecast layout! Learn more

10-Day Weather Forecast

Advertisements
Track Severe Weather on mobile